Time;durP1;ratioP1;P1;durP2;ratioP2;P2;SDS_P1;SDS_P2;PMS_P1;PMS_P2;Temp;Humidity;BMP_temperature;BMP_pressure;BME280_temperature;BME280_humidity;BME280_pressure;Samples;Min_cycle;Max_cycle;Signal;HPM_P1;HPM_P2
2021/04/22 00:00:38;;;;;;;20.60;8.70;;;6.90;71.50;;;;;;5029575;28;20025;-75
2021/04/22 00:03:03;;;;;;;19.53;7.93;;;6.80;71.10;;;;;;5026419;28;20444;-74
2021/04/22 00:05:41;;;;;;;21.53;9.27;;;6.90;71.40;;;;;;5049048;28;20485;-75
2021/04/22 00:08:08;;;;;;;25.23;8.23;;;6.80;71.60;;;;;;5043624;28;20032;-75
2021/04/22 00:10:51;;;;;;;21.27;7.60;;;6.70;71.10;;;;;;5027864;28;20030;-75
2021/04/22 00:13:21;;;;;;;25.20;8.13;;;6.70;72.30;;;;;;5029282;28;20036;-79
2021/04/22 00:15:48;;;;;;;17.53;8.07;;;6.60;71.70;;;;;;5028737;28;20053;-74
2021/04/22 00:18:14;;;;;;;16.77;6.70;;;6.60;72.10;;;;;;5028320;28;20116;-80
2021/04/22 00:20:40;;;;;;;21.90;8.00;;;6.50;72.20;;;;;;5028067;28;20108;-75
2021/04/22 00:23:07;;;;;;;22.97;7.27;;;6.50;72.30;;;;;;5050765;28;20364;-75
2021/04/22 00:25:33;;;;;;;24.77;7.83;;;6.50;72.00;;;;;;5052804;28;20078;-76
2021/04/22 00:28:00;;;;;;;21.73;6.57;;;6.50;72.50;;;;;;5053685;28;20039;-74
2021/04/22 00:30:26;;;;;;;11.33;4.40;;;6.50;72.30;;;;;;5051406;28;20041;-74
2021/04/22 00:32:52;;;;;;;21.40;5.80;;;6.40;71.90;;;;;;5051974;28;20040;-74
2021/04/22 00:35:18;;;;;;;18.50;7.10;;;6.30;72.40;;;;;;5066850;28;20039;-80
2021/04/22 00:37:44;;;;;;;18.87;6.40;;;6.40;72.80;;;;;;5035051;28;20044;-75
2021/04/22 00:40:16;;;;;;;26.07;5.20;;;6.40;73.00;;;;;;5051311;28;20095;-74
2021/04/22 00:42:42;;;;;;;22.75;5.72;;;6.40;72.20;;;;;;5052505;28;20033;-74
2021/04/22 00:45:09;;;;;;;25.00;5.73;;;6.30;72.20;;;;;;5053190;28;20029;-74
2021/04/22 00:47:36;;;;;;;21.30;5.77;;;6.20;72.10;;;;;;5052347;28;20086;-74
2021/04/22 00:50:07;;;;;;;21.63;5.17;;;6.20;72.90;;;;;;5053044;28;20486;-75
2021/04/22 00:52:33;;;;;;;17.20;4.93;;;6.20;73.10;;;;;;5052221;28;20471;-76
2021/04/22 00:54:59;;;;;;;21.97;5.60;;;6.20;73.50;;;;;;5052906;28;20033;-75
2021/04/22 00:57:24;;;;;;;15.00;3.50;;;6.20;73.50;;;;;;5050349;28;20036;-80
2021/04/22 00:59:50;;;;;;;13.43;4.57;;;6.20;72.90;;;;;;5052396;28;20124;-75
2021/04/22 01:02:16;;;;;;;18.80;3.83;;;6.10;72.90;;;;;;5052171;28;20072;-75
2021/04/22 01:04:44;;;;;;;16.47;4.60;;;6.10;73.00;;;;;;5050884;28;20031;-74
2021/04/22 01:07:10;;;;;;;20.47;5.20;;;6.00;73.40;;;;;;5052285;28;20102;-74
2021/04/22 01:09:36;;;;;;;14.77;4.43;;;6.00;74.30;;;;;;5050449;28;20095;-74
2021/04/22 01:12:03;;;;;;;17.03;3.07;;;6.10;74.10;;;;;;5053076;28;20497;-74
2021/04/22 01:14:29;;;;;;;22.20;4.10;;;6.00;73.30;;;;;;5050738;28;20040;-74
2021/04/22 01:16:55;;;;;;;19.53;3.77;;;6.00;73.40;;;;;;5070367;28;20478;-75
2021/04/22 01:19:22;;;;;;;13.40;3.00;;;5.90;73.70;;;;;;5071069;28;20497;-74
2021/04/22 01:21:48;;;;;;;13.97;3.97;;;5.90;73.60;;;;;;5070364;28;20028;-75
2021/04/22 01:24:13;;;;;;;12.77;3.50;;;5.90;74.30;;;;;;5063837;28;20121;-75
2021/04/22 01:26:40;;;;;;;18.03;3.73;;;5.90;74.40;;;;;;5037147;28;20127;-75
2021/04/22 01:29:06;;;;;;;17.77;3.30;;;5.80;74.40;;;;;;5068440;28;20441;-75
2021/04/22 01:31:32;;;;;;;16.67;3.43;;;5.80;74.50;;;;;;5050515;28;20033;-74
2021/04/22 01:34:06;;;;;;;16.77;3.43;;;5.90;74.80;;;;;;5050927;28;20056;-74
2021/04/22 01:36:34;;;;;;;16.70;3.27;;;5.80;74.50;;;;;;5052504;28;20470;-76
2021/04/22 01:39:00;;;;;;;11.43;3.60;;;5.80;74.50;;;;;;5052829;28;20033;-76
2021/04/22 01:41:27;;;;;;;15.43;3.47;;;5.70;74.50;;;;;;5063707;28;20500;-76
2021/04/22 01:43:53;;;;;;;16.13;3.00;;;5.80;75.00;;;;;;5058450;28;20021;-76
2021/04/22 01:46:19;;;;;;;13.73;3.47;;;5.80;75.00;;;;;;5032274;28;20041;-74
2021/04/22 01:48:44;;;;;;;18.93;3.20;;;5.70;75.10;;;;;;5069634;28;20032;-77
2021/04/22 01:51:10;;;;;;;16.03;2.77;;;5.70;75.00;;;;;;5047698;28;20041;-74
2021/04/22 01:53:36;;;;;;;18.40;3.33;;;5.70;74.70;;;;;;5050676;28;20034;-75
2021/04/22 01:56:02;;;;;;;18.47;2.70;;;5.70;74.70;;;;;;5052005;28;20490;-75
2021/04/22 01:58:28;;;;;;;13.20;2.70;;;5.70;74.90;;;;;;5052650;28;20051;-75
2021/04/22 02:00:56;;;;;;;14.33;2.80;;;5.70;74.90;;;;;;5049880;28;20385;-75
2021/04/22 02:03:23;;;;;;;12.87;2.70;;;5.70;75.10;;;;;;5051938;28;20487;-76
2021/04/22 02:05:49;;;;;;;13.10;2.57;;;5.70;75.00;;;;;;5050964;28;20212;-76
2021/04/22 02:08:16;;;;;;;17.20;3.73;;;5.60;75.00;;;;;;5035212;28;20782;-74
2021/04/22 02:10:43;;;;;;;19.80;3.40;;;5.60;75.40;;;;;;5049533;28;20397;-73
2021/04/22 02:13:11;;;;;;;18.97;3.50;;;5.60;75.30;;;;;;5052197;28;20037;-75
2021/04/22 02:15:38;;;;;;;23.70;3.00;;;5.60;75.60;;;;;;5055268;28;20021;-75
2021/04/22 02:18:05;;;;;;;20.40;2.87;;;5.70;76.10;;;;;;5071528;28;20028;-75
2021/04/22 02:20:31;;;;;;;16.13;2.87;;;5.60;75.50;;;;;;5071908;28;20036;-75
2021/04/22 02:22:56;;;;;;;17.77;2.93;;;5.60;75.80;;;;;;5071346;28;20028;-74
2021/04/22 02:25:27;;;;;;;18.67;3.10;;;5.60;76.30;;;;;;5068277;28;20112;-74
2021/04/22 02:27:54;;;;;;;15.30;2.70;;;5.60;75.90;;;;;;5069669;28;20020;-74
2021/04/22 02:30:40;;;;;;;13.67;2.27;;;5.60;76.30;;;;;;5071907;28;20032;-74
2021/04/22 02:33:08;;;;;;;12.70;2.73;;;5.50;76.40;;;;;;5071284;28;20029;-74
2021/04/22 02:35:37;;;;;;;15.83;2.80;;;5.50;76.50;;;;;;5066559;28;20029;-78
2021/04/22 02:38:08;;;;;;;14.57;3.30;;;5.50;76.40;;;;;;5049689;28;20548;-75
2021/04/22 02:40:35;;;;;;;14.13;2.90;;;5.40;76.50;;;;;;5051116;28;20043;-75
2021/04/22 02:43:04;;;;;;;16.83;2.70;;;5.40;76.30;;;;;;5049569;28;20026;-75
2021/04/22 02:45:34;;;;;;;14.67;2.17;;;5.40;76.60;;;;;;5053740;28;20038;-74
2021/04/22 02:48:01;;;;;;;19.97;3.47;;;5.40;76.70;;;;;;5068870;28;20052;-74
2021/04/22 02:50:31;;;;;;;15.50;2.90;;;5.40;76.50;;;;;;5070911;28;20803;-76
2021/04/22 02:52:57;;;;;;;20.80;3.13;;;5.40;76.30;;;;;;5065683;28;20033;-74
2021/04/22 02:55:23;;;;;;;19.67;3.07;;;5.30;76.60;;;;;;5052780;28;20120;-75
2021/04/22 02:57:48;;;;;;;20.00;2.73;;;5.20;75.70;;;;;;5046977;28;20108;-74
2021/04/22 03:00:18;;;;;;;17.40;2.77;;;5.10;77.00;;;;;;5031140;28;20038;-74
2021/04/22 03:02:43;;;;;;;19.93;2.80;;;5.00;77.00;;;;;;5029131;28;20049;-73
2021/04/22 03:05:10;;;;;;;15.87;2.47;;;5.00;77.40;;;;;;5031737;28;20033;-76
2021/04/22 03:07:35;;;;;;;12.43;2.47;;;5.10;77.70;;;;;;5053464;28;20031;-74
2021/04/22 03:10:01;;;;;;;17.03;2.73;;;5.10;77.40;;;;;;5070303;28;20040;-74
2021/04/22 03:12:27;;;;;;;19.10;3.20;;;5.10;77.10;;;;;;5070951;28;20032;-74
2021/04/22 03:14:52;;;;;;;14.13;2.50;;;5.10;77.90;;;;;;5049685;28;20033;-74
2021/04/22 03:17:18;;;;;;;13.17;2.37;;;5.10;77.60;;;;;;5056558;28;20055;-75
2021/04/22 03:19:44;;;;;;;16.93;3.00;;;5.00;77.30;;;;;;5069079;28;20044;-78
2021/04/22 03:22:10;;;;;;;14.10;2.67;;;4.90;77.50;;;;;;5063703;28;20035;-74
2021/04/22 03:24:36;;;;;;;18.03;3.27;;;4.90;77.70;;;;;;5053053;28;20032;-75
2021/04/22 03:27:03;;;;;;;21.20;4.10;;;4.90;78.00;;;;;;5070115;28;20036;-74
2021/04/22 03:29:28;;;;;;;20.33;2.50;;;5.00;78.30;;;;;;5059809;28;20037;-74
2021/04/22 03:31:54;;;;;;;19.37;2.70;;;5.00;78.20;;;;;;5050406;28;20040;-74
2021/04/22 03:34:19;;;;;;;15.57;2.87;;;5.00;78.00;;;;;;5031917;28;20061;-74
2021/04/22 03:36:45;;;;;;;17.40;2.70;;;5.10;78.10;;;;;;5028687;28;20026;-78
2021/04/22 03:39:11;;;;;;;18.13;2.63;;;5.10;78.00;;;;;;5043553;28;20040;-75
2021/04/22 03:41:36;;;;;;;16.80;2.90;;;5.10;77.70;;;;;;5069438;28;20041;-75
2021/04/22 03:44:03;;;;;;;16.70;2.87;;;5.10;77.70;;;;;;5068249;28;20458;-75
2021/04/22 03:46:28;;;;;;;13.03;2.57;;;5.00;77.80;;;;;;5070204;28;20436;-75
2021/04/22 03:48:54;;;;;;;20.33;3.00;;;5.10;78.10;;;;;;5059559;28;20041;-75
2021/04/22 03:51:20;;;;;;;20.27;2.83;;;5.00;78.10;;;;;;5030108;28;20029;-75
2021/04/22 03:53:45;;;;;;;16.80;2.63;;;5.00;78.00;;;;;;5028551;28;20041;-80
2021/04/22 03:56:11;;;;;;;20.07;3.27;;;5.00;78.00;;;;;;5045011;28;20383;-74
2021/04/22 03:58:36;;;;;;;14.87;2.47;;;5.00;77.80;;;;;;5037079;28;20479;-74
2021/04/22 04:01:02;;;;;;;18.53;2.83;;;5.00;78.10;;;;;;5073609;28;20028;-74
2021/04/22 04:03:28;;;;;;;12.40;2.60;;;5.00;78.10;;;;;;5055606;28;20087;-74
2021/04/22 04:05:54;;;;;;;21.10;2.93;;;5.00;78.00;;;;;;5073305;28;20151;-76
2021/04/22 04:08:20;;;;;;;17.57;2.60;;;4.90;77.70;;;;;;5055810;28;20404;-75
2021/04/22 04:10:46;;;;;;;16.57;3.00;;;4.90;78.10;;;;;;5071714;28;20039;-74
2021/04/22 04:13:12;;;;;;;16.60;3.43;;;4.90;78.10;;;;;;5058469;28;20456;-74
2021/04/22 04:15:38;;;;;;;17.97;2.87;;;4.90;77.70;;;;;;5054091;28;20081;-75
2021/04/22 04:18:05;;;;;;;20.77;3.83;;;4.90;77.80;;;;;;5039051;28;20075;-74
2021/04/22 04:20:31;;;;;;;18.70;2.60;;;4.80;77.60;;;;;;5043689;28;20041;-74
2021/04/22 04:22:57;;;;;;;14.87;2.97;;;4.80;78.00;;;;;;5048466;28;20032;-75
2021/04/22 04:25:23;;;;;;;16.57;2.63;;;4.90;78.00;;;;;;5072140;28;20111;-75
2021/04/22 04:27:49;;;;;;;17.93;3.07;;;4.90;78.30;;;;;;5073349;28;20103;-76
2021/04/22 04:30:17;;;;;;;13.80;3.17;;;5.00;78.30;;;;;;5071602;28;20047;-74
2021/04/22 04:32:43;;;;;;;21.70;2.90;;;5.10;78.00;;;;;;5056777;28;20505;-75
2021/04/22 04:35:10;;;;;;;15.63;2.53;;;5.10;78.00;;;;;;5042517;28;20143;-74
2021/04/22 04:37:36;;;;;;;18.13;3.13;;;5.20;77.80;;;;;;5071986;28;20025;-75
2021/04/22 04:40:08;;;;;;;15.93;2.90;;;5.20;77.30;;;;;;5071491;28;20082;-74
2021/04/22 04:42:34;;;;;;;13.43;2.33;;;5.30;77.40;;;;;;5059605;28;20025;-75
2021/04/22 04:44:59;;;;;;;14.37;3.13;;;5.40;77.50;;;;;;5051570;28;20041;-78
2021/04/22 04:47:25;;;;;;;15.90;3.03;;;5.60;76.80;;;;;;5052839;28;20083;-76
2021/04/22 04:49:50;;;;;;;17.53;2.80;;;5.90;76.20;;;;;;5051824;28;20041;-74
2021/04/22 04:52:16;;;;;;;16.00;2.70;;;6.10;74.90;;;;;;5043522;28;20024;-77
2021/04/22 04:54:42;;;;;;;16.43;3.00;;;6.50;73.60;;;;;;5067898;28;20127;-75
2021/04/22 04:57:08;;;;;;;23.27;3.10;;;7.00;72.70;;;;;;5052349;28;20055;-75
2021/04/22 04:59:34;;;;;;;18.07;3.67;;;7.50;71.10;;;;;;5051756;28;20033;-76
2021/04/22 05:02:00;;;;;;;14.50;2.97;;;7.90;69.50;;;;;;5052988;28;20063;-75
2021/04/22 05:04:26;;;;;;;17.73;3.17;;;8.40;68.30;;;;;;5052338;28;20056;-74
2021/04/22 05:06:51;;;;;;;18.57;3.17;;;8.90;66.00;;;;;;5051320;28;20055;-75
2021/04/22 05:09:17;;;;;;;18.03;2.80;;;9.50;65.00;;;;;;5032809;28;20839;-77
2021/04/22 05:11:42;;;;;;;13.83;2.87;;;10.10;63.10;;;;;;5044903;28;20059;-76
2021/04/22 05:14:08;;;;;;;17.07;3.00;;;10.60;60.90;;;;;;5049394;28;20036;-76
2021/04/22 05:16:34;;;;;;;15.27;2.80;;;11.10;59.10;;;;;;5050346;28;20029;-76
2021/04/22 05:19:00;;;;;;;20.70;3.17;;;11.70;58.00;;;;;;5033268;28;20082;-78
2021/04/22 05:21:25;;;;;;;21.07;3.43;;;12.20;56.20;;;;;;5034901;28;20484;-76
2021/04/22 05:23:51;;;;;;;15.37;2.70;;;12.70;53.70;;;;;;5070002;28;20025;-76
2021/04/22 05:26:19;;;;;;;10.50;2.67;;;13.10;52.20;;;;;;5064797;28;20032;-76
2021/04/22 05:28:45;;;;;;;17.23;2.97;;;13.40;50.30;;;;;;5069869;28;20040;-76
2021/04/22 05:31:11;;;;;;;11.73;2.63;;;13.60;49.90;;;;;;5070523;28;20037;-75
2021/04/22 05:33:37;;;;;;;21.63;3.30;;;13.40;50.70;;;;;;5071332;28;20027;-76
2021/04/22 05:36:03;;;;;;;11.00;3.03;;;13.60;49.10;;;;;;5059360;28;20033;-81
2021/04/22 05:38:29;;;;;;;14.20;2.70;;;13.90;48.60;;;;;;5049417;28;20036;-76
2021/04/22 05:40:55;;;;;;;16.10;3.00;;;13.90;47.30;;;;;;5065344;28;20029;-75
2021/04/22 05:43:20;;;;;;;15.97;3.20;;;13.70;48.40;;;;;;5050503;28;20036;-75
2021/04/22 05:45:46;;;;;;;16.93;3.53;;;13.50;49.20;;;;;;5056281;28;20047;-75
2021/04/22 05:48:12;;;;;;;15.70;3.73;;;13.30;49.20;;;;;;5069979;28;20029;-75
2021/04/22 05:50:38;;;;;;;17.50;3.27;;;13.40;50.40;;;;;;5053142;28;20040;-76
2021/04/22 05:53:04;;;;;;;16.53;3.67;;;13.30;49.00;;;;;;5070457;28;20449;-80
2021/04/22 05:55:30;;;;;;;12.27;3.07;;;13.30;50.00;;;;;;5064561;28;20395;-77
2021/04/22 05:57:57;;;;;;;14.60;3.20;;;13.40;50.50;;;;;;5051537;28;20025;-76
2021/04/22 06:00:24;;;;;;;17.13;3.40;;;13.50;49.70;;;;;;5032506;28;20029;-73
2021/04/22 06:02:50;;;;;;;11.53;3.10;;;13.60;48.30;;;;;;5021759;28;829799;-75
2021/04/22 06:05:16;;;;;;;17.23;3.60;;;13.80;48.00;;;;;;5052210;28;20103;-77
2021/04/22 06:07:42;;;;;;;20.50;3.77;;;14.10;48.00;;;;;;5060136;28;20029;-77
2021/04/22 06:10:08;;;;;;;20.00;3.35;;;14.40;48.20;;;;;;5050931;28;20055;-82
2021/04/22 06:12:34;;;;;;;11.95;3.25;;;14.40;46.70;;;;;;5051627;28;20025;-75
2021/04/22 06:15:00;;;;;;;13.07;2.70;;;14.60;46.30;;;;;;5051770;28;20467;-76
2021/04/22 06:17:26;;;;;;;12.13;2.95;;;14.70;45.70;;;;;;5069151;28;20493;-76
2021/04/22 06:19:52;;;;;;;10.75;2.50;;;14.90;46.40;;;;;;5043338;28;20033;-74
2021/04/22 06:22:17;;;;;;;15.93;2.42;;;15.30;44.90;;;;;;5050024;28;20033;-75
2021/04/22 06:24:43;;;;;;;10.93;2.45;;;15.80;44.20;;;;;;5049456;28;20458;-75
2021/04/22 06:27:09;;;;;;;10.18;2.92;;;16.30;43.40;;;;;;5042520;28;20511;-77
2021/04/22 06:29:34;;;;;;;10.55;2.28;;;16.70;42.60;;;;;;5049281;28;20433;-74
2021/04/22 06:32:00;;;;;;;9.45;2.33;;;17.30;42.30;;;;;;5051075;28;20039;-74
2021/04/22 06:34:26;;;;;;;11.35;2.50;;;17.80;40.90;;;;;;5045301;28;20032;-75
2021/04/22 06:36:52;;;;;;;13.60;2.70;;;18.40;38.90;;;;;;5037810;28;20474;-75
2021/04/22 06:39:18;;;;;;;9.48;2.30;;;18.80;37.40;;;;;;5041887;28;20036;-75
2021/04/22 06:41:43;;;;;;;12.82;2.58;;;18.90;37.00;;;;;;5039684;28;20108;-75
2021/04/22 06:44:09;;;;;;;13.48;2.42;;;19.10;37.50;;;;;;5047592;28;20048;-79
2021/04/22 06:46:36;;;;;;;13.18;3.22;;;19.10;34.70;;;;;;5039398;28;20079;-75
2021/04/22 06:49:02;;;;;;;14.05;3.33;;;18.90;36.40;;;;;;5034260;28;20041;-75
2021/04/22 06:51:28;;;;;;;13.40;3.55;;;19.30;37.00;;;;;;5032256;28;20033;-77
2021/04/22 06:53:53;;;;;;;12.65;3.15;;;19.30;35.50;;;;;;5040199;28;20547;-77
2021/04/22 06:56:19;;;;;;;13.43;4.07;;;19.40;35.50;;;;;;5042421;28;20540;-76
2021/04/22 06:58:45;;;;;;;13.85;3.83;;;19.30;35.30;;;;;;5042196;28;20041;-76
2021/04/22 07:01:11;;;;;;;14.77;3.80;;;19.50;34.20;;;;;;5031191;28;20112;-77
2021/04/22 07:03:36;;;;;;;11.70;3.88;;;19.60;34.40;;;;;;5029127;28;20053;-76
2021/04/22 07:06:02;;;;;;;9.30;3.40;;;19.70;34.50;;;;;;5033841;28;20048;-75
2021/04/22 07:08:28;;;;;;;12.52;3.33;;;19.80;33.90;;;;;;5030243;28;20155;-75
2021/04/22 07:10:54;;;;;;;12.77;5.57;;;19.90;32.90;;;;;;5046293;28;20048;-76
2021/04/22 07:13:20;;;;;;;12.23;3.67;;;19.90;33.70;;;;;;5045934;28;20485;-74
2021/04/22 07:15:45;;;;;;;10.98;2.47;;;19.60;33.30;;;;;;5038146;28;20112;-75
2021/04/22 07:18:11;;;;;;;10.27;2.00;;;19.70;32.40;;;;;;5035129;28;21119;-76
2021/04/22 07:20:38;;;;;;;9.60;2.35;;;18.80;31.80;;;;;;5027501;28;20029;-74
2021/04/22 07:23:04;;;;;;;9.25;2.42;;;18.10;32.80;;;;;;5020190;28;20056;-73
2021/04/22 07:25:34;;;;;;;12.18;2.92;;;17.20;33.60;;;;;;5031562;28;20029;-75
2021/04/22 07:28:04;;;;;;;10.00;2.72;;;16.60;36.00;;;;;;5038720;28;20111;-76
2021/04/22 07:30:30;;;;;;;13.18;4.22;;;17.20;35.80;;;;;;5034470;28;20056;-75
2021/04/22 07:32:56;;;;;;;9.45;3.15;;;17.60;35.20;;;;;;5036814;28;20119;-74
2021/04/22 07:35:22;;;;;;;11.75;1.90;;;17.90;34.30;;;;;;5031471;28;20033;-75
2021/04/22 07:37:48;;;;;;;18.33;8.32;;;16.70;33.70;;;;;;5016237;28;20040;-75
2021/04/22 07:40:18;;;;;;;8.43;1.58;;;16.00;37.20;;;;;;5042080;28;20112;-76
2021/04/22 07:42:44;;;;;;;11.48;1.65;;;16.20;34.70;;;;;;5031109;28;20109;-75
2021/04/22 07:45:12;;;;;;;15.32;5.10;;;15.80;35.20;;;;;;5035516;28;20461;-75
2021/04/22 07:47:37;;;;;;;10.13;1.95;;;15.30;37.10;;;;;;5037437;28;20068;-75
2021/04/22 07:50:09;;;;;;;21.20;7.93;;;15.70;36.40;;;;;;5048955;28;20068;-74
2021/04/22 07:52:34;;;;;;;36.33;16.70;;;16.20;38.70;;;;;;5038711;28;20029;-73
2021/04/22 07:55:00;;;;;;;26.63;12.95;;;17.30;39.50;;;;;;5034243;28;20029;-75
2021/04/22 07:57:26;;;;;;;15.98;4.50;;;18.70;37.20;;;;;;5033005;28;20044;-75
2021/04/22 07:59:51;;;;;;;16.85;5.05;;;18.70;32.10;;;;;;5050354;28;20091;-74
2021/04/22 08:02:17;;;;;;;18.33;6.18;;;18.30;33.70;;;;;;5050071;28;20110;-75
2021/04/22 08:04:42;;;;;;;13.10;6.50;;;17.60;33.80;;;;;;5049320;28;20083;-75
2021/04/22 08:07:08;;;;;;;12.20;3.40;;;17.70;36.00;;;;;;5051438;28;20081;-75
2021/04/22 08:09:34;;;;;;;10.07;2.75;;;18.60;34.30;;;;;;5047810;28;20502;-75
2021/04/22 08:12:05;;;;;;;11.68;4.80;;;19.50;33.20;;;;;;5048989;28;20448;-74
2021/04/22 08:14:31;;;;;;;10.75;2.33;;;19.50;32.40;;;;;;5032585;28;20374;-75
2021/04/22 08:16:56;;;;;;;19.08;9.52;;;19.20;31.20;;;;;;5049847;28;20052;-77
2021/04/22 08:19:22;;;;;;;21.90;9.30;;;19.20;33.60;;;;;;5069635;28;20483;-81
2021/04/22 08:21:47;;;;;;;14.70;4.10;;;20.20;32.60;;;;;;5063607;28;20032;-75
2021/04/22 08:24:13;;;;;;;12.48;2.92;;;19.70;32.00;;;;;;5041989;28;20068;-74
2021/04/22 08:26:39;;;;;;;18.42;8.13;;;18.90;30.80;;;;;;5028465;28;20030;-74
2021/04/22 08:29:05;;;;;;;10.60;5.07;;;18.50;34.20;;;;;;5048606;28;20045;-75
2021/04/22 08:31:31;;;;;;;10.48;3.63;;;19.50;33.70;;;;;;5047463;28;20029;-75
2021/04/22 08:34:00;;;;;;;13.35;4.50;;;20.30;32.10;;;;;;5048281;28;20041;-76
2021/04/22 08:36:26;;;;;;;8.27;1.75;;;20.90;31.00;;;;;;5038270;28;20112;-80
2021/04/22 08:38:53;;;;;;;10.68;2.65;;;21.20;29.20;;;;;;5063000;28;20048;-77
2021/04/22 08:41:20;;;;;;;7.60;1.38;;;21.40;30.00;;;;;;5069212;28;20466;-75
2021/04/22 08:43:47;;;;;;;14.20;1.48;;;20.80;29.20;;;;;;5069833;28;20016;-74
2021/04/22 08:46:14;;;;;;;9.50;1.40;;;19.50;30.00;;;;;;5073065;28;20025;-77
2021/04/22 08:48:42;;;;;;;9.00;1.67;;;19.30;30.90;;;;;;5059016;28;20055;-75
2021/04/22 08:51:09;;;;;;;10.43;1.60;;;19.30;30.80;;;;;;5051551;28;20029;-74
2021/04/22 08:53:37;;;;;;;8.60;1.45;;;19.10;33.20;;;;;;5050487;28;20036;-75
2021/04/22 08:56:03;;;;;;;16.27;2.28;;;20.00;31.80;;;;;;5052498;28;20096;-75
2021/04/22 08:58:29;;;;;;;11.95;1.27;;;20.00;30.90;;;;;;5060214;28;20060;-80
2021/04/22 09:00:59;;;;;;;8.48;1.65;;;20.10;31.30;;;;;;5032329;28;20056;-76
2021/04/22 09:03:24;;;;;;;6.75;1.13;;;20.40;31.20;;;;;;5032772;28;20111;-76
2021/04/22 09:05:51;;;;;;;9.18;1.08;;;20.50;31.30;;;;;;5031703;28;20697;-75
2021/04/22 09:08:18;;;;;;;7.90;1.05;;;20.80;30.30;;;;;;5043847;28;20025;-75
2021/04/22 09:10:44;;;;;;;6.50;1.05;;;21.20;30.70;;;;;;5050101;28;20032;-75
2021/04/22 09:13:15;;;;;;;8.00;1.20;;;21.50;29.50;;;;;;5062338;28;20024;-75
2021/04/22 09:15:42;;;;;;;10.98;1.15;;;21.20;28.70;;;;;;5054032;28;20033;-74
2021/04/22 09:18:14;;;;;;;9.10;1.42;;;21.00;29.60;;;;;;5055626;28;20029;-74
2021/04/22 09:20:46;;;;;;;9.75;1.90;;;21.10;29.60;;;;;;5052762;28;20056;-76
2021/04/22 09:23:17;;;;;;;6.97;1.17;;;20.30;29.80;;;;;;5050935;28;20031;-76
2021/04/22 09:25:43;;;;;;;10.05;2.00;;;19.50;30.80;;;;;;5035539;28;20029;-76
2021/04/22 09:28:09;;;;;;;8.90;1.42;;;19.60;32.00;;;;;;5055116;28;20055;-75
2021/04/22 09:30:41;;;;;;;5.75;1.02;;;20.20;30.90;;;;;;5049798;28;20390;-78
2021/04/22 09:33:18;;;;;;;7.80;1.60;;;20.00;29.90;;;;;;5052771;28;20029;-74
2021/04/22 09:35:44;;;;;;;8.90;1.70;;;19.00;30.50;;;;;;5050938;28;20029;-75
2021/04/22 09:38:13;;;;;;;8.68;1.40;;;18.20;32.10;;;;;;5056763;28;20029;-75
2021/04/22 09:40:41;;;;;;;5.97;1.60;;;18.20;31.80;;;;;;5050408;28;20923;-75
2021/04/22 09:43:13;;;;;;;8.63;2.15;;;17.90;32.60;;;;;;5051606;28;20412;-74
2021/04/22 09:45:42;;;;;;;8.98;1.90;;;17.90;33.90;;;;;;5054624;28;20028;-75
2021/04/22 09:48:28;;;;;;;8.63;1.38;;;18.30;33.60;;;;;;5069223;28;20073;-73
2021/04/22 09:50:55;;;;;;;7.25;1.27;;;18.90;32.10;;;;;;5045721;28;20870;-75
2021/04/22 09:53:24;;;;;;;8.45;1.80;;;19.10;30.50;;;;;;5050191;28;20437;-76
2021/04/22 09:55:53;;;;;;;11.45;2.05;;;18.30;32.60;;;;;;5032154;28;20099;-76
2021/04/22 09:58:28;;;;;;;10.82;2.92;;;18.10;32.50;;;;;;5059881;28;20032;-76
2021/04/22 10:00:55;;;;;;;7.45;1.70;;;18.70;33.80;;;;;;5070797;28;20025;-76
2021/04/22 10:03:21;;;;;;;8.85;1.85;;;19.30;31.60;;;;;;5070783;28;20501;-76
2021/04/22 10:05:59;;;;;;;9.13;2.38;;;19.20;31.50;;;;;;5070121;28;20044;-76
2021/04/22 10:08:26;;;;;;;6.90;1.55;;;19.20;31.70;;;;;;5061256;28;20029;-75
2021/04/22 10:11:07;;;;;;;9.80;1.85;;;18.80;31.90;;;;;;5048670;28;20052;-74
2021/04/22 10:13:48;;;;;;;7.97;1.67;;;18.50;32.40;;;;;;5051075;28;20035;-76
2021/04/22 10:16:13;;;;;;;9.05;2.63;;;18.90;32.50;;;;;;5051080;28;20029;-75
2021/04/22 10:18:43;;;;;;;9.02;1.58;;;18.70;33.60;;;;;;5061970;28;20098;-78
2021/04/22 10:21:10;;;;;;;8.20;1.27;;;18.70;30.70;;;;;;5071137;28;20032;-75
2021/04/22 10:23:36;;;;;;;7.90;1.67;;;18.30;32.40;;;;;;5071076;28;20031;-75
2021/04/22 10:26:02;;;;;;;8.27;1.27;;;18.20;32.30;;;;;;5068853;28;20222;-75
2021/04/22 10:28:28;;;;;;;9.25;1.50;;;18.10;32.20;;;;;;5060726;28;20041;-76
2021/04/22 10:30:56;;;;;;;13.70;4.32;;;17.80;32.30;;;;;;5048851;28;20035;-75
2021/04/22 10:33:26;;;;;;;11.18;4.53;;;17.10;34.00;;;;;;5033845;28;20029;-74
2021/04/22 10:35:52;;;;;;;6.95;1.58;;;17.40;34.90;;;;;;5050609;28;20102;-74
2021/04/22 10:38:19;;;;;;;7.60;2.45;;;17.70;32.90;;;;;;5052335;28;20029;-75
2021/04/22 10:40:49;;;;;;;13.05;2.58;;;17.60;33.70;;;;;;5050458;28;20025;-79
2021/04/22 10:43:26;;;;;;;7.28;1.40;;;18.30;34.10;;;;;;5049875;28;20027;-76
2021/04/22 10:45:54;;;;;;;5.35;1.55;;;17.80;32.40;;;;;;5050273;28;20090;-74
2021/04/22 10:48:20;;;;;;;9.40;2.13;;;18.00;32.70;;;;;;5051101;28;20025;-74
2021/04/22 10:50:49;;;;;;;8.55;2.13;;;17.80;33.70;;;;;;5060845;28;20490;-78
2021/04/22 10:53:19;;;;;;;8.32;1.77;;;17.90;33.50;;;;;;5069196;28;20024;-74
2021/04/22 10:55:46;;;;;;;10.77;2.08;;;17.90;34.50;;;;;;5069500;28;20358;-79
2021/04/22 10:58:43;;;;;;;7.88;1.80;;;18.50;34.20;;;;;;5070298;28;20080;-75
2021/04/22 11:01:11;;;;;;;9.32;1.83;;;19.20;33.80;;;;;;5069612;28;20086;-76
2021/04/22 11:03:39;;;;;;;7.82;1.85;;;19.40;32.30;;;;;;5070330;28;20053;-76
2021/04/22 11:06:10;;;;;;;8.82;1.60;;;19.20;32.10;;;;;;5067556;28;20107;-76
2021/04/22 11:08:47;;;;;;;5.53;1.50;;;18.10;32.20;;;;;;5070281;28;20020;-76
2021/04/22 11:11:24;;;;;;;8.00;1.70;;;17.20;34.10;;;;;;5068449;28;20052;-75
2021/04/22 11:14:07;;;;;;;11.70;2.25;;;16.40;35.50;;;;;;5070046;28;20020;-80
2021/04/22 11:16:39;;;;;;;10.35;2.42;;;16.70;35.70;;;;;;5074392;28;20465;-74
2021/04/22 11:19:44;;;;;;;9.38;1.65;;;17.20;35.70;;;;;;5071019;28;20535;-75
2021/04/22 11:22:22;;;;;;;8.48;1.83;;;17.40;34.20;;;;;;5019808;28;20229;-77
2021/04/22 11:24:58;;;;;;;9.80;2.53;;;17.50;35.50;;;;;;5030225;28;20026;-75
2021/04/22 11:27:30;;;;;;;10.13;3.20;;;18.00;35.00;;;;;;5031287;28;20033;-76
2021/04/22 11:29:58;;;;;;;10.45;4.50;;;18.60;35.40;;;;;;5038489;28;20080;-75
2021/04/22 11:32:31;;;;;;;10.95;3.45;;;19.20;33.30;;;;;;5045013;28;20033;-76
2021/04/22 11:35:06;;;;;;;7.05;2.85;;;19.20;32.50;;;;;;5049851;28;20102;-75
2021/04/22 11:37:50;;;;;;;13.40;4.90;;;19.20;32.80;;;;;;5051115;28;20486;-77
2021/04/22 11:40:34;;;;;;;12.55;5.68;;;18.80;34.30;;;;;;5050203;28;20121;-75
2021/04/22 11:43:00;;;;;;;13.88;4.50;;;19.00;34.70;;;;;;5068042;28;20055;-75
2021/04/22 11:45:29;;;;;;;12.55;4.85;;;19.40;34.30;;;;;;5069899;28;20053;-76
2021/04/22 11:48:06;;;;;;;12.43;5.20;;;19.70;34.10;;;;;;5068927;28;20334;-82
2021/04/22 11:50:45;;;;;;;12.60;3.28;;;20.10;33.80;;;;;;5062091;28;20045;-74
2021/04/22 11:53:12;;;;;;;7.70;1.92;;;20.40;32.70;;;;;;5048438;28;20035;-75
2021/04/22 11:55:47;;;;;;;8.98;2.92;;;20.00;30.00;;;;;;5066477;28;20381;-75
2021/04/22 11:58:24;;;;;;;8.27;3.22;;;19.60;31.80;;;;;;5055357;28;20056;-76
2021/04/22 12:00:56;;;;;;;12.45;3.92;;;19.70;32.90;;;;;;5049243;28;20475;-74
2021/04/22 12:03:29;;;;;;;7.72;2.58;;;20.00;33.00;;;;;;5049412;28;20480;-74
2021/04/22 12:05:56;;;;;;;9.10;2.90;;;19.80;32.00;;;;;;5049368;28;20025;-82
2021/04/22 12:08:35;;;;;;;6.93;2.58;;;19.70;33.20;;;;;;5049509;28;20033;-75
2021/04/22 12:11:06;;;;;;;10.00;2.47;;;20.00;33.10;;;;;;5048223;28;20115;-76
2021/04/22 12:13:34;;;;;;;8.00;2.15;;;20.10;31.80;;;;;;5049740;28;20029;-76
2021/04/22 12:16:02;;;;;;;8.60;2.05;;;20.20;32.00;;;;;;5049011;28;20025;-81
2021/04/22 12:18:30;;;;;;;9.20;1.95;;;20.30;32.30;;;;;;5050435;28;20025;-75
2021/04/22 12:21:17;;;;;;;9.75;2.42;;;20.30;31.80;;;;;;5059338;28;20062;-76
2021/04/22 12:23:48;;;;;;;9.20;2.08;;;20.20;32.40;;;;;;5073854;28;20021;-75
2021/04/22 12:26:24;;;;;;;10.82;1.95;;;20.10;32.00;;;;;;5071964;28;20118;-74
2021/04/22 12:28:53;;;;;;;8.63;2.20;;;20.10;32.90;;;;;;5074157;28;20036;-75
2021/04/22 12:31:29;;;;;;;7.65;2.05;;;20.40;32.20;;;;;;5062081;28;20020;-74
2021/04/22 12:33:57;;;;;;;7.82;2.15;;;20.50;31.60;;;;;;5053742;28;20036;-74
2021/04/22 12:36:23;;;;;;;7.55;2.00;;;20.50;31.90;;;;;;5052985;28;20443;-76
2021/04/22 12:38:48;;;;;;;6.38;2.03;;;20.60;32.20;;;;;;5053560;28;20036;-75
2021/04/22 12:41:16;;;;;;;7.93;1.88;;;20.70;32.10;;;;;;5061998;28;20036;-74
2021/04/22 12:43:42;;;;;;;8.20;1.75;;;20.50;31.60;;;;;;5068521;28;20036;-76
2021/04/22 12:46:20;;;;;;;7.10;2.13;;;19.90;31.90;;;;;;5052549;28;20070;-77